Time;durP1;ratioP1;P1;durP2;ratioP2;P2;SDS_P1;SDS_P2;PMS_P1;PMS_P2;Temp;Humidity;BMP_temperature;BMP_pressure;BME280_temperature;BME280_humidity;BME280_pressure;Samples;Min_cycle;Max_cycle;Signal;HPM_P1;HPM_P2
2022/01/20 00:00:02;;;;;;;7.68;3.78;;;3.90;99.90;;;;;;10302288;28;20066;-62
2022/01/20 00:05:30;;;;;;;8.60;7.90;;;4.00;99.90;;;;;;9638413;28;20140;-62
2022/01/20 00:26:45;;;;;;;8.88;8.18;;;4.10;99.90;;;;;;9633884;28;20042;-59
2022/01/20 00:32:03;;;;;;;9.10;8.15;;;4.20;99.90;;;;;;9641621;28;20061;-59
2022/01/20 00:37:15;;;;;;;8.57;7.88;;;4.20;99.90;;;;;;9602731;28;20219;-59
2022/01/20 00:42:17;;;;;;;9.70;8.23;;;4.20;99.90;;;;;;9595579;28;20048;-59
2022/01/20 00:47:20;;;;;;;8.40;7.72;;;4.30;99.90;;;;;;9574019;28;20400;-59
2022/01/20 00:52:21;;;;;;;9.15;8.40;;;4.30;99.90;;;;;;9526345;28;20050;-59
2022/01/20 00:57:23;;;;;;;9.02;8.32;;;4.40;99.90;;;;;;9478218;28;20054;-59
2022/01/20 01:02:25;;;;;;;9.30;8.70;;;4.40;99.90;;;;;;9486746;28;20241;-59
2022/01/20 01:07:44;;;;;;;3.20;1.77;;;4.40;99.90;;;;;;9614929;28;20050;-62
2022/01/20 01:23:14;;;;;;;4.03;1.75;;;4.30;99.90;;;;;;10300950;28;20054;-61
2022/01/20 01:28:18;;;;;;;4.07;1.98;;;4.20;99.90;;;;;;10303323;28;20069;-62
2022/01/20 01:33:19;;;;;;;4.55;1.95;;;4.00;99.90;;;;;;10305550;28;20500;-62
2022/01/20 01:38:38;;;;;;;4.32;1.83;;;3.90;99.90;;;;;;10300421;28;20476;-62
2022/01/20 01:43:43;;;;;;;5.95;2.08;;;3.90;99.90;;;;;;10300693;28;20080;-62
2022/01/20 01:48:45;;;;;;;4.38;2.10;;;3.90;99.90;;;;;;10298801;28;20054;-61
2022/01/20 01:53:47;;;;;;;4.25;1.63;;;3.80;99.90;;;;;;10297239;28;20042;-61
2022/01/20 01:58:49;;;;;;;8.30;2.28;;;3.70;99.90;;;;;;10308722;28;20061;-61
2022/01/20 02:03:59;;;;;;;13.45;3.15;;;3.70;99.90;;;;;;10295077;28;20069;-62
2022/01/20 02:19:32;;;;;;;9.50;2.17;;;4.10;99.90;;;;;;10305233;28;20153;-62
2022/01/20 02:24:34;;;;;;;9.07;2.15;;;3.90;99.90;;;;;;10297920;28;20078;-61
2022/01/20 02:29:36;;;;;;;13.38;2.83;;;3.80;99.90;;;;;;10303438;28;20054;-61
2022/01/20 02:34:38;;;;;;;9.60;2.85;;;3.70;99.90;;;;;;10299241;28;20065;-62
2022/01/20 02:50:10;;;;;;;13.85;3.78;;;3.50;99.90;;;;;;10295912;28;20105;-61
2022/01/20 02:55:12;;;;;;;15.43;5.82;;;3.30;99.90;;;;;;10298976;28;20054;-62
2022/01/20 03:00:14;;;;;;;17.05;4.22;;;3.30;99.90;;;;;;10297397;28;20128;-62
2022/01/20 03:05:16;;;;;;;11.60;2.58;;;3.20;99.90;;;;;;10296268;28;20141;-61
2022/01/20 03:10:18;;;;;;;8.85;2.15;;;3.50;99.90;;;;;;10299905;28;20069;-62
2022/01/20 03:15:20;;;;;;;9.88;2.20;;;3.80;99.90;;;;;;10297988;28;20082;-61
2022/01/20 03:20:21;;;;;;;9.48;1.40;;;3.90;99.90;;;;;;10311888;28;20137;-62
2022/01/20 03:25:23;;;;;;;7.38;1.65;;;4.00;99.90;;;;;;10306201;28;20472;-61
2022/01/20 03:30:26;;;;;;;4.00;1.83;;;4.10;99.90;;;;;;10305871;28;20081;-62
2022/01/20 03:35:28;;;;;;;7.72;1.67;;;4.40;99.90;;;;;;10305789;28;20136;-61
2022/01/20 03:40:30;;;;;;;11.98;2.03;;;4.40;99.90;;;;;;10305610;28;20065;-62
2022/01/20 03:45:31;;;;;;;11.00;1.92;;;4.30;99.90;;;;;;10305856;28;20108;-61
2022/01/20 03:55:55;;;;;;;6.03;1.52;;;4.20;99.90;;;;;;10301978;28;20073;-62
2022/01/20 04:00:57;;;;;;;10.45;1.67;;;4.10;99.90;;;;;;10306927;28;20055;-62
2022/01/20 04:06:00;;;;;;;7.07;2.10;;;4.10;99.90;;;;;;10306385;28;21331;-62
2022/01/20 04:11:09;;;;;;;10.45;1.75;;;4.10;99.90;;;;;;10305122;28;20089;-62
2022/01/20 04:16:34;;;;;;;4.70;1.58;;;4.10;99.90;;;;;;10302042;28;20050;-61
2022/01/20 04:21:38;;;;;;;8.05;1.60;;;4.10;99.90;;;;;;10302983;28;20042;-62
2022/01/20 04:26:41;;;;;;;6.20;1.75;;;4.10;99.90;;;;;;10303456;28;20111;-61
2022/01/20 04:31:44;;;;;;;7.68;1.48;;;4.10;99.90;;;;;;10299787;28;20074;-62
2022/01/20 04:36:50;;;;;;;11.13;1.45;;;4.00;99.90;;;;;;10305298;28;20108;-62
2022/01/20 04:41:53;;;;;;;6.95;1.88;;;3.90;99.90;;;;;;10306914;28;20046;-62
2022/01/20 04:47:03;;;;;;;19.60;2.45;;;3.90;99.90;;;;;;10304267;28;20086;-61
2022/01/20 04:57:30;;;;;;;15.75;2.40;;;3.90;99.90;;;;;;10290697;28;20069;-61
2022/01/20 05:02:31;;;;;;;16.00;2.15;;;4.00;99.90;;;;;;10298271;28;20198;-62
2022/01/20 05:07:33;;;;;;;14.38;2.08;;;4.10;99.90;;;;;;10302640;28;20587;-62
2022/01/20 05:13:01;;;;;;;11.45;1.95;;;4.20;99.90;;;;;;10302385;28;20046;-62
2022/01/20 05:17:56;;;;;;;9.35;1.90;;;4.10;99.90;;;;;;10297432;28;20074;-62
2022/01/20 05:22:58;;;;;;;14.93;3.25;;;4.00;99.90;;;;;;10302845;28;20051;-61
2022/01/20 05:28:00;;;;;;;15.80;2.15;;;3.90;99.90;;;;;;10302316;28;20073;-62
2022/01/20 05:33:02;;;;;;;11.50;2.28;;;3.90;99.90;;;;;;10302273;28;20481;-61
2022/01/20 05:38:04;;;;;;;11.50;2.42;;;3.90;99.90;;;;;;10300174;28;20129;-62
2022/01/20 05:43:06;;;;;;;13.27;1.38;;;3.80;99.90;;;;;;10301498;28;20046;-62
2022/01/20 05:48:12;;;;;;;9.57;1.42;;;3.80;99.90;;;;;;10301174;28;21288;-62
2022/01/20 05:53:13;;;;;;;3.90;1.00;;;3.80;99.90;;;;;;10295017;28;20189;-62
2022/01/20 05:58:19;;;;;;;11.98;1.77;;;3.80;99.90;;;;;;10301412;28;20389;-61
2022/01/20 06:03:36;;;;;;;10.35;2.05;;;3.70;99.90;;;;;;10299591;28;20050;-62
2022/01/20 06:08:41;;;;;;;6.30;1.90;;;3.60;99.90;;;;;;10300608;28;20053;-62
2022/01/20 06:13:43;;;;;;;7.72;1.70;;;3.70;99.90;;;;;;10297419;28;20070;-62
2022/01/20 06:18:45;;;;;;;8.85;1.13;;;3.70;99.90;;;;;;10300933;28;20450;-62
2022/01/20 06:23:49;;;;;;;11.10;1.80;;;3.70;99.90;;;;;;10305912;28;20113;-62
2022/01/20 06:28:51;;;;;;;12.93;1.35;;;3.70;99.90;;;;;;10297381;28;20477;-61
2022/01/20 06:33:53;;;;;;;7.63;1.10;;;3.80;99.90;;;;;;10300271;28;20070;-62
2022/01/20 06:38:54;;;;;;;9.57;1.38;;;3.80;99.90;;;;;;10301025;28;20046;-62
2022/01/20 06:43:56;;;;;;;8.50;1.42;;;3.90;99.90;;;;;;10298056;28;20078;-61
2022/01/20 06:48:58;;;;;;;10.25;1.05;;;3.90;99.90;;;;;;10295206;28;20444;-61
2022/01/20 06:54:00;;;;;;;5.65;1.00;;;4.00;99.90;;;;;;10304418;28;20056;-61
2022/01/20 06:59:01;;;;;;;12.32;1.30;;;4.00;99.90;;;;;;10305722;28;20123;-67
2022/01/20 07:04:04;;;;;;;12.45;1.40;;;4.00;99.90;;;;;;10305594;28;20042;-69
2022/01/20 07:09:11;;;;;;;9.73;1.48;;;4.00;99.90;;;;;;10308046;28;20116;-69
2022/01/20 07:14:12;;;;;;;5.05;0.85;;;4.00;99.90;;;;;;10301720;28;20056;-63
2022/01/20 07:19:15;;;;;;;7.07;1.40;;;4.10;99.90;;;;;;10307145;28;20120;-65
2022/01/20 07:24:16;;;;;;;7.90;1.50;;;4.00;99.90;;;;;;10301665;28;20058;-65
2022/01/20 07:29:18;;;;;;;6.25;1.00;;;4.00;99.90;;;;;;10302036;28;20456;-65
2022/01/20 07:34:20;;;;;;;7.18;0.90;;;3.90;99.90;;;;;;10309670;28;20047;-65
2022/01/20 07:39:22;;;;;;;3.00;0.50;;;3.90;99.90;;;;;;10300297;28;20085;-65
2022/01/20 07:44:24;;;;;;;5.60;0.50;;;3.90;99.90;;;;;;10309198;28;20148;-66
2022/01/20 07:49:27;;;;;;;5.95;0.80;;;4.00;99.90;;;;;;10303582;28;20046;-66
2022/01/20 07:54:28;;;;;;;7.95;0.82;;;4.00;99.90;;;;;;10301921;28;20050;-65
2022/01/20 07:59:30;;;;;;;7.13;0.88;;;4.00;99.90;;;;;;10303821;28;20129;-66
2022/01/20 08:04:32;;;;;;;4.35;1.98;;;4.00;99.90;;;;;;10301935;28;20053;-66
2022/01/20 08:09:34;;;;;;;7.13;0.75;;;4.00;99.90;;;;;;10304775;28;20082;-65
2022/01/20 08:14:54;;;;;;;8.73;0.60;;;4.10;99.90;;;;;;10301249;28;20046;-66
2022/01/20 08:19:58;;;;;;;6.50;0.63;;;4.20;99.90;;;;;;10300993;28;20107;-66
2022/01/20 08:25:12;;;;;;;1.10;0.20;;;4.20;99.90;;;;;;10304828;28;20058;-66
2022/01/20 08:30:17;;;;;;;4.88;0.40;;;4.10;99.90;;;;;;10303495;28;20777;-66
2022/01/20 08:35:21;;;;;;;3.20;0.80;;;4.10;99.90;;;;;;10309134;28;20129;-65
2022/01/20 08:40:23;;;;;;;3.90;0.30;;;4.10;99.90;;;;;;10302525;28;20595;-65
2022/01/20 08:45:29;;;;;;;2.20;0.43;;;4.10;99.90;;;;;;10305345;28;20052;-65
2022/01/20 08:50:33;;;;;;;2.10;0.70;;;4.10;99.90;;;;;;10298410;28;20101;-65
2022/01/20 08:55:36;;;;;;;2.25;0.50;;;4.10;99.90;;;;;;10296956;28;20644;-66
2022/01/20 09:00:38;;;;;;;5.10;0.50;;;4.20;99.90;;;;;;10305490;28;20050;-66
2022/01/20 09:05:39;;;;;;;4.88;0.55;;;4.30;99.90;;;;;;10300301;28;20129;-66
2022/01/20 09:10:45;;;;;;;4.00;0.40;;;4.30;99.90;;;;;;10295050;28;20559;-65
2022/01/20 09:15:47;;;;;;;1.33;0.30;;;4.40;99.90;;;;;;10300783;28;20057;-65
2022/01/20 09:20:48;;;;;;;3.97;0.45;;;4.30;99.90;;;;;;10300669;28;20046;-66
2022/01/20 09:25:50;;;;;;;0.40;0.30;;;4.30;99.90;;;;;;10302812;28;20456;-65
2022/01/20 09:30:57;;;;;;;3.10;0.40;;;4.40;99.90;;;;;;10301874;28;20046;-66
2022/01/20 09:35:59;;;;;;;2.70;0.20;;;4.50;99.90;;;;;;10298560;28;20444;-65
2022/01/20 09:41:03;;;;;;;2.38;0.40;;;4.50;99.90;;;;;;10301240;28;20293;-65
2022/01/20 09:46:05;;;;;;;2.15;0.35;;;4.60;99.90;;;;;;10295995;28;20104;-71
2022/01/20 09:51:11;;;;;;;5.60;0.50;;;4.80;99.90;;;;;;10303165;28;20050;-65
2022/01/20 09:56:14;;;;;;;0.80;0.10;;;5.00;98.50;;;;;;10300356;28;20112;-65
2022/01/20 10:01:39;;;;;;;4.55;0.35;;;4.90;90.60;;;;;;10299997;28;20113;-65
2022/01/20 10:06:56;;;;;;;2.42;0.25;;;5.00;89.50;;;;;;10301122;28;20046;-65
2022/01/20 10:11:58;;;;;;;1.80;0.30;;;5.10;87.40;;;;;;10303182;28;20054;-65
2022/01/20 10:17:00;;;;;;;1.88;0.20;;;5.00;84.60;;;;;;10294732;28;20070;-65
2022/01/20 10:22:14;;;;;;;1.85;0.30;;;5.00;83.60;;;;;;10303618;28;20051;-65
2022/01/20 10:27:16;;;;;;;5.25;0.40;;;5.00;83.80;;;;;;10306409;28;20477;-65
2022/01/20 10:32:17;;;;;;;4.45;0.47;;;5.10;82.60;;;;;;10311461;28;20046;-65
2022/01/20 10:37:24;;;;;;;3.65;0.30;;;5.20;83.50;;;;;;10309608;28;20498;-65
2022/01/20 10:42:28;;;;;;;2.43;0.33;;;5.20;81.60;;;;;;10306707;28;20085;-65
2022/01/20 10:47:33;;;;;;;4.50;0.45;;;5.10;88.20;;;;;;10309505;28;20054;-65
2022/01/20 10:52:37;;;;;;;2.55;0.30;;;5.10;90.50;;;;;;10309183;28;20069;-65
2022/01/20 10:57:39;;;;;;;4.82;0.38;;;5.00;90.50;;;;;;10308371;28;20050;-65
2022/01/20 11:02:41;;;;;;;3.22;0.80;;;4.90;87.20;;;;;;10304460;28;20100;-65
2022/01/20 11:07:44;;;;;;;4.70;0.47;;;5.00;89.00;;;;;;10306823;28;20444;-66
2022/01/20 11:12:46;;;;;;;2.70;0.28;;;4.90;89.20;;;;;;10302102;28;20078;-66
2022/01/20 11:17:53;;;;;;;6.40;0.63;;;4.90;83.90;;;;;;10290958;28;20042;-65
2022/01/20 11:22:59;;;;;;;3.65;0.40;;;4.80;82.90;;;;;;10307663;28;20497;-65
2022/01/20 11:28:21;;;;;;;4.70;0.67;;;4.80;82.90;;;;;;10307882;28;20104;-65
2022/01/20 11:33:32;;;;;;;2.20;0.32;;;4.80;81.00;;;;;;10297309;28;20148;-65
2022/01/20 11:38:43;;;;;;;2.38;0.40;;;4.80;77.40;;;;;;10303943;28;20054;-65
2022/01/20 11:43:48;;;;;;;5.72;0.47;;;5.10;77.60;;;;;;10301848;28;20105;-65
2022/01/20 11:49:05;;;;;;;2.30;0.30;;;5.10;78.10;;;;;;10303477;28;20046;-65
2022/01/20 11:54:08;;;;;;;1.10;0.20;;;5.40;76.50;;;;;;10307367;28;20501;-64
2022/01/20 11:59:13;;;;;;;1.40;0.38;;;5.40;75.70;;;;;;10299974;28;20082;-64
2022/01/20 12:04:35;;;;;;;1.20;0.30;;;5.30;74.40;;;;;;10294896;28;20439;-64
2022/01/20 12:09:39;;;;;;;3.55;0.50;;;5.20;74.80;;;;;;10308174;28;20108;-65
2022/01/20 12:14:41;;;;;;;1.42;0.30;;;5.10;77.30;;;;;;10305674;28;20489;-64
2022/01/20 12:19:52;;;;;;;2.60;0.20;;;4.90;80.00;;;;;;10307814;28;20053;-64
2022/01/20 12:24:57;;;;;;;5.78;0.35;;;4.70;80.80;;;;;;10307658;28;20072;-65
2022/01/20 12:29:58;;;;;;;3.38;0.40;;;4.50;84.10;;;;;;10303923;28;20136;-64
2022/01/20 12:35:02;;;;;;;3.13;0.32;;;4.20;88.40;;;;;;10301764;28;20046;-65
2022/01/20 12:40:18;;;;;;;3.70;0.30;;;4.00;97.00;;;;;;10301806;28;20050;-64
2022/01/20 12:50:54;;;;;;;5.55;0.40;;;3.80;99.90;;;;;;10301612;28;20046;-63
2022/01/20 12:55:56;;;;;;;8.60;0.40;;;3.90;99.90;;;;;;10305889;28;20101;-64
2022/01/20 13:01:03;;;;;;;5.47;0.40;;;4.00;99.90;;;;;;10299289;28;20042;-64
2022/01/20 13:06:09;;;;;;;1.98;0.22;;;4.10;99.90;;;;;;10304941;28;20057;-64
2022/01/20 13:11:12;;;;;;;4.15;0.20;;;4.30;93.60;;;;;;10300198;28;20062;-63
2022/01/20 13:16:15;;;;;;;8.27;0.45;;;4.40;92.10;;;;;;10296603;28;20098;-63
2022/01/20 13:21:18;;;;;;;6.47;0.40;;;4.50;89.50;;;;;;10300457;28;20058;-64
2022/01/20 13:26:20;;;;;;;3.92;0.40;;;4.60;89.20;;;;;;10299845;28;20571;-63
2022/01/20 13:31:22;;;;;;;4.28;0.30;;;4.80;87.00;;;;;;10304253;28;20314;-64
2022/01/20 13:36:54;;;;;;;6.45;0.30;;;4.90;83.80;;;;;;10302449;28;20129;-64
2022/01/20 13:42:07;;;;;;;4.72;0.52;;;5.00;85.80;;;;;;10293916;28;20151;-64
2022/01/20 13:47:10;;;;;;;3.08;0.30;;;4.90;83.00;;;;;;10318144;28;20054;-64
2022/01/20 13:52:14;;;;;;;3.67;0.63;;;4.70;81.00;;;;;;10295033;28;20078;-63
2022/01/20 13:57:17;;;;;;;2.35;0.40;;;4.50;82.60;;;;;;10306560;28;20097;-63
2022/01/20 14:02:18;;;;;;;1.23;0.25;;;4.50;84.70;;;;;;10291886;28;20137;-63
2022/01/20 14:07:21;;;;;;;6.22;0.40;;;4.40;86.20;;;;;;10299013;28;20104;-64
2022/01/20 14:12:23;;;;;;;1.85;0.30;;;4.40;87.90;;;;;;10299973;28;20152;-64
2022/01/20 14:17:25;;;;;;;9.05;0.40;;;4.40;90.10;;;;;;10298798;28;20137;-63
2022/01/20 14:22:26;;;;;;;4.65;0.40;;;4.50;90.20;;;;;;10291921;28;20054;-63
2022/01/20 14:27:28;;;;;;;2.97;0.43;;;4.50;88.40;;;;;;10298312;28;20121;-63
2022/01/20 14:32:30;;;;;;;5.30;0.30;;;4.50;87.40;;;;;;10303428;28;20097;-64
2022/01/20 14:37:37;;;;;;;8.38;0.35;;;4.50;84.10;;;;;;10293629;28;20077;-64
2022/01/20 14:42:40;;;;;;;4.07;0.40;;;4.50;83.10;;;;;;10304374;28;20054;-63
2022/01/20 14:47:43;;;;;;;10.05;0.50;;;4.40;82.30;;;;;;10298040;28;20050;-63
2022/01/20 14:52:44;;;;;;;3.58;0.60;;;4.40;81.10;;;;;;10294774;28;20100;-63
2022/01/20 14:57:47;;;;;;;1.52;0.40;;;4.30;80.20;;;;;;10298739;28;20219;-63
2022/01/20 15:02:48;;;;;;;10.85;0.63;;;4.30;81.00;;;;;;10299715;28;20046;-63
2022/01/20 15:07:51;;;;;;;10.68;0.68;;;4.30;81.70;;;;;;10299076;28;20169;-63
2022/01/20 15:13:00;;;;;;;6.22;0.40;;;4.20;84.30;;;;;;10293245;28;20460;-63
2022/01/20 15:18:02;;;;;;;2.17;0.30;;;4.10;82.10;;;;;;10306964;28;20089;-63
2022/01/20 15:23:24;;;;;;;1.98;0.30;;;4.00;83.50;;;;;;10304554;28;20493;-64
2022/01/20 15:28:30;;;;;;;2.05;0.30;;;3.90;83.10;;;;;;10305280;28;20386;-64
2022/01/20 15:33:31;;;;;;;1.92;0.40;;;3.90;84.40;;;;;;10306314;28;20115;-63
2022/01/20 15:38:33;;;;;;;2.47;1.13;;;3.80;85.10;;;;;;10303698;28;20532;-63
2022/01/20 15:43:35;;;;;;;9.20;0.90;;;3.80;86.00;;;;;;10307115;28;20054;-63
2022/01/20 15:48:37;;;;;;;7.80;1.60;;;3.70;88.70;;;;;;10306146;28;20042;-63
2022/01/20 15:53:39;;;;;;;4.85;1.77;;;3.70;90.00;;;;;;10316056;28;20054;-63
2022/01/20 15:58:42;;;;;;;5.07;0.98;;;3.60;90.80;;;;;;10311079;28;20050;-64
2022/01/20 16:03:46;;;;;;;7.63;0.63;;;3.60;90.90;;;;;;10297638;28;20103;-64
2022/01/20 16:08:48;;;;;;;6.28;0.57;;;3.50;91.20;;;;;;10297738;28;20520;-64
2022/01/20 16:13:50;;;;;;;12.57;2.45;;;3.60;91.70;;;;;;10295539;28;20149;-64
2022/01/20 16:18:52;;;;;;;3.95;0.90;;;3.50;92.30;;;;;;10303407;28;20112;-64
2022/01/20 16:23:54;;;;;;;6.47;0.85;;;3.40;93.40;;;;;;10299839;28;20073;-63
2022/01/20 16:28:58;;;;;;;6.35;0.95;;;3.30;92.90;;;;;;10303870;28;20046;-64
2022/01/20 16:33:59;;;;;;;5.15;0.90;;;3.30;92.20;;;;;;10304181;28;20042;-61
2022/01/20 16:39:01;;;;;;;5.22;1.40;;;3.30;93.50;;;;;;10299771;28;20081;-61
2022/01/20 16:44:03;;;;;;;4.18;1.10;;;3.30;93.80;;;;;;10300509;28;20060;-61
2022/01/20 16:49:05;;;;;;;8.73;1.25;;;3.30;93.50;;;;;;10301986;28;20124;-61
2022/01/20 16:54:07;;;;;;;6.43;0.52;;;3.20;92.80;;;;;;10308198;28;20054;-61
2022/01/20 16:59:08;;;;;;;1.02;0.75;;;3.10;93.70;;;;;;10300478;28;20050;-61
2022/01/20 17:04:10;;;;;;;5.45;1.15;;;3.10;94.60;;;;;;10301996;28;20680;-61
2022/01/20 17:09:12;;;;;;;5.32;0.88;;;3.00;94.00;;;;;;10293839;28;20080;-60
2022/01/20 17:14:14;;;;;;;4.15;0.60;;;3.00;94.80;;;;;;10301578;28;20571;-60
2022/01/20 17:19:15;;;;;;;6.10;0.70;;;2.90;94.20;;;;;;10297138;28;20221;-61
2022/01/20 17:24:17;;;;;;;0.85;0.40;;;2.90;93.70;;;;;;10303785;28;20054;-61
2022/01/20 17:29:18;;;;;;;2.50;0.40;;;3.00;93.00;;;;;;10306005;28;20042;-60
2022/01/20 17:34:21;;;;;;;5.35;0.43;;;2.90;92.10;;;;;;10295704;28;20062;-61
2022/01/20 17:39:23;;;;;;;1.45;0.35;;;2.90;91.90;;;;;;10303903;28;20156;-61
2022/01/20 17:44:24;;;;;;;4.65;0.40;;;2.70;93.50;;;;;;10299671;28;20519;-61
2022/01/20 17:49:26;;;;;;;2.80;0.40;;;2.70;93.50;;;;;;10296686;28;20600;-61
2022/01/20 17:54:28;;;;;;;4.25;1.17;;;2.60;94.10;;;;;;10298837;28;20136;-61
2022/01/20 17:59:30;;;;;;;3.60;0.70;;;2.70;93.40;;;;;;10296806;28;20078;-61
2022/01/20 18:04:31;;;;;;;4.47;0.73;;;2.70;92.80;;;;;;10299385;28;20097;-61
2022/01/20 18:09:33;;;;;;;5.90;0.40;;;2.70;92.30;;;;;;10299706;28;20804;-61
2022/01/20 18:14:35;;;;;;;2.75;0.52;;;2.70;91.60;;;;;;10299418;28;20113;-61
2022/01/20 18:19:36;;;;;;;1.98;0.60;;;2.70;92.20;;;;;;10305006;28;20050;-61
2022/01/20 18:24:39;;;;;;;3.03;0.60;;;2.70;92.50;;;;;;10299189;28;20458;-60
2022/01/20 18:29:41;;;;;;;5.95;0.40;;;2.70;93.00;;;;;;10302673;28;20053;-60
2022/01/20 18:34:45;;;;;;;1.38;0.50;;;2.60;93.80;;;;;;10299893;28;20124;-61
2022/01/20 18:39:47;;;;;;;3.22;0.47;;;2.60;94.60;;;;;;10299722;28;20113;-61
2022/01/20 18:44:48;;;;;;;4.78;0.77;;;2.60;95.10;;;;;;10299626;28;20046;-61
2022/01/20 18:49:50;;;;;;;5.32;0.77;;;2.60;93.60;;;;;;10307231;28;20455;-61
2022/01/20 18:54:56;;;;;;;3.97;0.70;;;2.60;93.10;;;;;;10305550;28;20509;-61
2022/01/20 18:59:58;;;;;;;4.25;0.73;;;2.80;92.50;;;;;;10300848;28;20140;-61
2022/01/20 19:05:00;;;;;;;3.58;0.50;;;2.80;92.60;;;;;;10303026;28;20078;-61
2022/01/20 19:10:03;;;;;;;7.53;1.00;;;2.90;92.30;;;;;;10303414;28;20670;-61
2022/01/20 19:15:09;;;;;;;3.67;0.70;;;3.00;92.70;;;;;;10304341;28;20054;-60
2022/01/20 19:20:13;;;;;;;4.47;0.50;;;3.10;93.30;;;;;;10309552;28;20054;-61
2022/01/20 19:25:17;;;;;;;6.63;0.50;;;3.10;92.60;;;;;;10300371;28;20058;-61
2022/01/20 19:30:20;;;;;;;5.95;0.63;;;3.10;91.90;;;;;;10310316;28;20049;-60
2022/01/20 19:35:23;;;;;;;2.03;0.60;;;3.10;92.30;;;;;;10304743;28;20507;-60
2022/01/20 19:40:26;;;;;;;1.75;0.52;;;3.00;91.60;;;;;;10308003;28;20494;-61
2022/01/20 19:45:28;;;;;;;5.75;0.60;;;3.00;91.70;;;;;;10301640;28;20501;-61
2022/01/20 19:50:32;;;;;;;9.70;0.70;;;2.90;92.60;;;;;;10301833;28;20051;-62
2022/01/20 19:55:34;;;;;;;6.25;0.90;;;2.90;93.50;;;;;;10303133;28;20038;-61
2022/01/20 20:00:36;;;;;;;7.65;1.23;;;2.80;94.40;;;;;;10304270;28;20588;-61
2022/01/20 20:05:41;;;;;;;6.95;0.90;;;2.80;94.40;;;;;;10310939;28;20058;-61
2022/01/20 20:10:43;;;;;;;4.20;0.82;;;2.70;94.90;;;;;;10302764;28;20066;-61
2022/01/20 20:15:45;;;;;;;4.07;0.57;;;2.70;95.90;;;;;;10302042;28;20104;-61
2022/01/20 20:20:47;;;;;;;3.58;0.40;;;2.60;99.20;;;;;;10301527;28;20042;-60
2022/01/20 20:25:48;;;;;;;3.40;0.75;;;2.50;99.90;;;;;;10301046;28;20096;-62
2022/01/20 20:30:50;;;;;;;3.42;0.40;;;2.60;99.30;;;;;;10305104;28;20132;-60
2022/01/20 20:35:52;;;;;;;2.47;0.45;;;2.60;97.90;;;;;;10303329;28;20050;-61
2022/01/20 20:40:54;;;;;;;6.95;0.65;;;2.50;99.00;;;;;;10304444;28;20100;-61
2022/01/20 20:45:56;;;;;;;2.67;0.50;;;2.50;97.10;;;;;;10296497;28;20444;-61
2022/01/20 20:50:58;;;;;;;5.43;0.95;;;2.60;95.10;;;;;;10297296;28;20054;-61
2022/01/20 20:56:00;;;;;;;7.13;0.43;;;2.60;95.50;;;;;;10301070;28;20089;-61
2022/01/20 21:01:01;;;;;;;6.40;0.50;;;2.60;94.80;;;;;;10303479;28;20082;-60
2022/01/20 21:06:13;;;;;;;4.15;0.40;;;2.60;94.20;;;;;;10305008;28;20080;-61
2022/01/20 21:11:16;;;;;;;6.22;0.95;;;2.60;94.50;;;;;;10300538;28;20070;-61
2022/01/20 21:16:17;;;;;;;3.35;0.70;;;2.60;94.70;;;;;;10297933;28;20150;-61
2022/01/20 21:21:19;;;;;;;4.28;0.60;;;2.60;95.80;;;;;;10298682;28;20057;-60
2022/01/20 21:26:21;;;;;;;3.85;0.55;;;2.60;98.30;;;;;;10302653;28;20133;-60
2022/01/20 21:31:23;;;;;;;4.50;1.50;;;2.60;99.60;;;;;;10305598;28;20112;-61
2022/01/20 21:36:25;;;;;;;10.90;0.55;;;2.50;99.90;;;;;;10301109;28;20054;-61
2022/01/20 21:41:29;;;;;;;4.10;1.40;;;2.50;99.90;;;;;;10301801;28;20149;-61
2022/01/20 21:46:30;;;;;;;5.75;0.50;;;2.50;99.90;;;;;;10300253;28;20045;-62
2022/01/20 21:51:32;;;;;;;9.20;0.73;;;2.50;99.90;;;;;;10299981;28;20050;-61
2022/01/20 21:56:35;;;;;;;4.32;0.32;;;2.40;99.90;;;;;;10304391;28;20104;-61
2022/01/20 22:01:37;;;;;;;3.97;0.50;;;2.40;99.90;;;;;;10297219;28;20144;-61
2022/01/20 22:06:40;;;;;;;3.10;0.30;;;2.40;99.90;;;;;;10299582;28;20043;-61
2022/01/20 22:11:43;;;;;;;5.22;1.30;;;2.40;99.90;;;;;;10295746;28;20108;-61
2022/01/20 22:16:45;;;;;;;6.13;0.77;;;2.40;99.90;;;;;;10301981;28;20054;-61
2022/01/20 22:21:47;;;;;;;0.90;0.20;;;2.40;99.90;;;;;;10304229;28;20063;-61
2022/01/20 22:26:50;;;;;;;1.40;0.40;;;2.40;99.90;;;;;;10309126;28;20061;-61
2022/01/20 22:31:53;;;;;;;6.55;0.40;;;2.40;99.90;;;;;;10306352;28;20089;-61
2022/01/20 22:36:55;;;;;;;1.23;0.50;;;2.40;99.90;;;;;;10307408;28;20045;-61
2022/01/20 22:41:57;;;;;;;2.55;0.30;;;2.40;99.90;;;;;;10307682;28;20443;-60
2022/01/20 22:46:59;;;;;;;3.78;0.50;;;2.40;99.90;;;;;;10308490;28;20046;-61
2022/01/20 22:52:02;;;;;;;4.22;0.85;;;2.40;99.90;;;;;;10310063;28;20120;-60
2022/01/20 22:57:03;;;;;;;1.50;0.30;;;2.40;99.90;;;;;;10308200;28;20096;-60
2022/01/20 23:02:07;;;;;;;2.95;0.50;;;2.40;99.90;;;;;;10304830;28;20050;-60
2022/01/20 23:07:09;;;;;;;7.65;0.85;;;2.40;99.90;;;;;;10309578;28;20556;-61
2022/01/20 23:12:10;;;;;;;7.35;0.90;;;2.30;99.90;;;;;;10304815;28;20078;-61
2022/01/20 23:17:30;;;;;;;5.45;0.77;;;2.20;99.90;;;;;;10308110;28;20058;-61
2022/01/20 23:22:32;;;;;;;4.47;1.17;;;2.10;99.90;;;;;;10306253;28;20062;-60
2022/01/20 23:27:34;;;;;;;3.90;1.10;;;1.90;99.90;;;;;;10306326;28;20141;-61
2022/01/20 23:32:36;;;;;;;8.02;1.20;;;1.80;99.90;;;;;;10307345;28;20050;-61
2022/01/20 23:37:38;;;;;;;6.97;1.88;;;1.80;99.90;;;;;;10304613;28;20719;-60
2022/01/20 23:42:48;;;;;;;9.82;1.13;;;1.80;99.90;;;;;;10308213;28;20173;-60
2022/01/20 23:48:08;;;;;;;4.57;0.75;;;1.90;99.90;;;;;;10303521;28;20047;-61
2022/01/20 23:53:10;;;;;;;7.15;0.60;;;1.90;99.90;;;;;;10310154;28;20058;-61
2022/01/20 23:58:12;;;;;;;4.03;0.50;;;2.00;99.90;;;;;;10305409;28;20097;-61
